createdAt,value
2023-01-23T00:01:32.549Z,98384.13
2023-01-23T00:04:00.789Z,98392.06
2023-01-23T00:06:28.443Z,98392.81
2023-01-23T00:08:56.902Z,98397.00
2023-01-23T00:11:27.052Z,98394.59
2023-01-23T00:13:54.457Z,98394.06
2023-01-23T00:16:23.478Z,98407.16
2023-01-23T00:18:51.413Z,98399.97
2023-01-23T00:21:21.070Z,98403.16
2023-01-23T00:23:51.045Z,98398.22
2023-01-23T00:26:23.895Z,98400.78
2023-01-23T00:28:51.217Z,98396.69
2023-01-23T00:31:22.485Z,98399.47
2023-01-23T00:33:54.357Z,98392.38
2023-01-23T00:36:23.677Z,98383.59
2023-01-23T00:38:50.597Z,98387.38
2023-01-23T00:41:17.435Z,98380.47
2023-01-23T00:43:45.116Z,98383.69
2023-01-23T00:46:12.051Z,98377.47
2023-01-23T00:48:39.925Z,98371.09
2023-01-23T00:51:06.843Z,98385.66
2023-01-23T00:53:33.779Z,98379.03
2023-01-23T00:56:01.005Z,98380.00
2023-01-23T00:58:28.212Z,98381.31
2023-01-23T01:00:55.183Z,98378.00
2023-01-23T01:03:25.231Z,98383.50
2023-01-23T01:05:52.305Z,98381.53
2023-01-23T01:08:19.205Z,98384.75
2023-01-23T01:10:46.124Z,98380.31
2023-01-23T01:13:13.158Z,98384.22
2023-01-23T01:15:40.043Z,98385.69
2023-01-23T01:18:07.063Z,98383.63
2023-01-23T01:20:34.240Z,98391.81
2023-01-23T01:23:01.703Z,98384.97
2023-01-23T01:25:30.453Z,98384.75
2023-01-23T01:27:58.399Z,98392.09
2023-01-23T01:30:27.683Z,98382.59
2023-01-23T01:32:55.357Z,98382.50
2023-01-23T01:35:23.114Z,98386.06
2023-01-23T01:37:51.536Z,98400.03
2023-01-23T01:40:23.836Z,98389.81
2023-01-23T01:42:56.940Z,98390.13
2023-01-23T01:46:01.516Z,98395.72
2023-01-23T01:49:01.756Z,98393.88
2023-01-23T01:51:52.947Z,98392.16
2023-01-23T01:54:29.504Z,98389.72
2023-01-23T01:57:23.299Z,98396.22
2023-01-23T02:00:09.835Z,98393.53
2023-01-23T02:02:54.533Z,98390.50
2023-01-23T02:05:26.344Z,98396.97
2023-01-23T02:08:18.975Z,98391.00
2023-01-23T02:10:48.989Z,98389.00
2023-01-23T02:13:28.524Z,98381.78
2023-01-23T02:15:57.936Z,98383.75
2023-01-23T02:18:27.024Z,98383.19
2023-01-23T02:20:56.660Z,98389.09
2023-01-23T02:24:01.694Z,98383.38
2023-01-23T02:26:33.947Z,98383.72
2023-01-23T02:29:01.315Z,98387.00
2023-01-23T02:31:32.876Z,98381.00
2023-01-23T02:34:00.508Z,98377.44
2023-01-23T02:36:33.381Z,98375.06
2023-01-23T02:39:16.935Z,98375.53
2023-01-23T02:41:49.898Z,98368.50
2023-01-23T02:44:21.266Z,98375.28
2023-01-23T02:46:54.149Z,98377.72
2023-01-23T02:49:22.169Z,98377.31
2023-01-23T02:51:50.211Z,98371.66
2023-01-23T02:54:19.012Z,98375.34
2023-01-23T02:56:45.880Z,98375.38
2023-01-23T02:59:31.732Z,98375.56
2023-01-23T03:01:59.032Z,98381.06
2023-01-23T03:04:26.238Z,98394.88
2023-01-23T03:06:54.102Z,98385.22
2023-01-23T03:09:20.983Z,98389.84
2023-01-23T03:11:47.924Z,98388.47
2023-01-23T03:14:18.018Z,98393.94
2023-01-23T03:16:50.386Z,98390.78
2023-01-23T03:19:20.921Z,98394.53
2023-01-23T03:21:49.330Z,98392.03
2023-01-23T03:24:17.093Z,98399.53
2023-01-23T03:26:48.411Z,98398.38
2023-01-23T03:29:44.339Z,98390.63
2023-01-23T03:32:15.252Z,98390.72
2023-01-23T03:34:43.939Z,98400.56
2023-01-23T03:37:12.787Z,98406.06
2023-01-23T03:40:01.440Z,98403.09
2023-01-23T03:42:28.501Z,98410.50
2023-01-23T03:44:57.822Z,98406.94
2023-01-23T03:47:27.751Z,98399.19
2023-01-23T03:49:55.581Z,98409.00
2023-01-23T03:52:22.677Z,98410.50
2023-01-23T03:54:52.228Z,98419.59
2023-01-23T03:57:19.330Z,98412.63
2023-01-23T04:00:05.442Z,98423.69
2023-01-23T04:02:45.007Z,98419.75
2023-01-23T04:05:14.152Z,98413.84
2023-01-23T04:07:41.024Z,98409.94
2023-01-23T04:10:09.934Z,98410.56
2023-01-23T04:12:38.419Z,98418.28
2023-01-23T04:15:05.900Z,98406.22
2023-01-23T04:17:33.185Z,98420.09
2023-01-23T04:20:00.039Z,98416.06
2023-01-23T04:22:27.262Z,98419.00
2023-01-23T04:24:55.023Z,98410.59
2023-01-23T04:27:22.075Z,98425.09
2023-01-23T04:29:50.141Z,98427.16
2023-01-23T04:32:17.838Z,98419.91
2023-01-23T04:34:47.552Z,98416.16
2023-01-23T04:37:14.947Z,98424.84
2023-01-23T04:39:41.974Z,98423.03
2023-01-23T04:42:09.520Z,98421.16
2023-01-23T04:44:57.640Z,98409.69
2023-01-23T04:47:33.437Z,98432.06
2023-01-23T04:50:02.319Z,98429.31
2023-01-23T04:52:32.738Z,98435.13
2023-01-23T04:54:59.595Z,98432.44
2023-01-23T04:57:26.662Z,98440.31
2023-01-23T05:00:04.860Z,98445.09
2023-01-23T05:02:32.408Z,98446.00
2023-01-23T05:04:59.284Z,98448.16
2023-01-23T05:07:26.590Z,98442.91
2023-01-23T05:10:12.647Z,98438.72
2023-01-23T05:12:43.099Z,98440.75
2023-01-23T05:15:12.744Z,98439.53
2023-01-23T05:17:41.687Z,98441.75
2023-01-23T05:20:10.290Z,98434.41
2023-01-23T05:22:38.866Z,98441.53
2023-01-23T05:25:06.267Z,98437.63
2023-01-23T05:27:33.406Z,98430.56
2023-01-23T05:30:00.327Z,98428.50
2023-01-23T05:32:31.611Z,98432.13
2023-01-23T05:35:16.747Z,98425.41
2023-01-23T05:37:44.102Z,98428.72
2023-01-23T05:40:13.417Z,98433.13
2023-01-23T05:42:58.878Z,98426.88
2023-01-23T05:45:44.310Z,98435.94
2023-01-23T05:48:20.938Z,98431.31
2023-01-23T05:50:47.841Z,98431.31
2023-01-23T05:53:14.846Z,98440.41
2023-01-23T05:55:42.147Z,98444.50
2023-01-23T05:58:11.577Z,98442.53
2023-01-23T06:00:58.673Z,98432.66
2023-01-23T06:03:44.572Z,98433.78
2023-01-23T06:06:47.069Z,98443.59
2023-01-23T06:09:14.777Z,98444.88
2023-01-23T06:11:41.645Z,98451.56
2023-01-23T06:14:09.696Z,98442.06
2023-01-23T06:16:36.740Z,98460.53
2023-01-23T06:19:04.720Z,98465.84
2023-01-23T06:21:39.762Z,98472.88
2023-01-23T06:24:07.419Z,98467.75
2023-01-23T06:26:34.271Z,98463.75
2023-01-23T06:29:02.168Z,98460.31
2023-01-23T06:31:32.502Z,98470.59
2023-01-23T06:34:01.785Z,98473.63
2023-01-23T06:36:34.411Z,98471.53
2023-01-23T06:39:04.319Z,98463.16
2023-01-23T06:41:40.286Z,98469.03
2023-01-23T06:44:13.476Z,98475.88
2023-01-23T06:46:40.617Z,98475.66
2023-01-23T06:49:08.004Z,98488.97
2023-01-23T06:51:36.981Z,98493.03
2023-01-23T06:54:06.150Z,98488.25
2023-01-23T06:56:33.809Z,98492.00
2023-01-23T06:59:04.284Z,98490.53
2023-01-23T07:01:33.009Z,98493.00
2023-01-23T07:04:19.022Z,98502.56
2023-01-23T07:06:49.617Z,98496.44
2023-01-23T07:09:18.298Z,98495.13
2023-01-23T07:11:51.963Z,98504.56
2023-01-23T07:14:18.893Z,98509.94
2023-01-23T07:16:48.371Z,98502.94
2023-01-23T07:19:16.042Z,98515.78
2023-01-23T07:21:43.423Z,98513.84
2023-01-23T07:24:10.256Z,98517.25
2023-01-23T07:26:37.136Z,98522.91
2023-01-23T07:29:04.204Z,98517.25
2023-01-23T07:31:31.142Z,98518.75
2023-01-23T07:33:57.955Z,98527.34
2023-01-23T07:36:24.809Z,98524.88
2023-01-23T07:38:51.695Z,98535.03
2023-01-23T07:41:18.779Z,98522.41
2023-01-23T07:43:45.979Z,98522.00
2023-01-23T07:46:12.840Z,98520.31
2023-01-23T07:48:40.525Z,98531.66
2023-01-23T07:51:07.729Z,98535.13
2023-01-23T07:53:34.755Z,98535.41
2023-01-23T07:56:05.732Z,98534.19
2023-01-23T07:58:33.057Z,98537.59
2023-01-23T08:01:00.261Z,98539.94
2023-01-23T08:03:29.179Z,98538.72
2023-01-23T08:05:59.825Z,98525.41
2023-01-23T08:08:26.887Z,98535.44
2023-01-23T08:10:53.699Z,98539.81
2023-01-23T08:13:20.612Z,98544.72
2023-01-23T08:15:47.411Z,98533.06
2023-01-23T08:18:14.241Z,98540.81
2023-01-23T08:20:43.506Z,98544.94
2023-01-23T08:23:10.896Z,98549.69
2023-01-23T08:25:38.524Z,98535.72
2023-01-23T08:28:05.555Z,98541.50
2023-01-23T08:30:32.774Z,98541.38
2023-01-23T08:33:04.783Z,98557.78
2023-01-23T08:35:31.850Z,98565.13
2023-01-23T08:38:02.729Z,98552.63
2023-01-23T08:40:30.340Z,98564.88
2023-01-23T08:42:57.511Z,98562.41
2023-01-23T08:45:25.590Z,98565.13
2023-01-23T08:47:52.461Z,98578.38
2023-01-23T08:50:19.973Z,98572.97
2023-01-23T08:52:47.003Z,98586.94
2023-01-23T08:55:13.989Z,98575.19
2023-01-23T08:57:40.910Z,98583.84
2023-01-23T09:00:08.390Z,98590.72
2023-01-23T09:02:35.280Z,98586.06
2023-01-23T09:05:02.529Z,98600.16
2023-01-23T09:07:29.464Z,98593.66
2023-01-23T09:09:56.409Z,98587.53
2023-01-23T09:12:23.250Z,98595.00
2023-01-23T09:14:50.323Z,98601.47
2023-01-23T09:17:17.137Z,98598.88
2023-01-23T09:19:44.039Z,98594.06
2023-01-23T09:22:10.847Z,98601.16
2023-01-23T09:24:37.696Z,98589.16
2023-01-23T09:27:04.522Z,98598.38
2023-01-23T09:29:31.681Z,98600.31
2023-01-23T09:31:58.847Z,98598.38
2023-01-23T09:34:25.745Z,98588.22
2023-01-23T09:36:52.589Z,98587.81
2023-01-23T09:39:20.901Z,98590.81
2023-01-23T09:41:49.362Z,98590.47
2023-01-23T09:44:41.310Z,98594.38
2023-01-23T09:47:17.771Z,98594.75
2023-01-23T09:49:53.261Z,98583.22
2023-01-23T09:52:24.142Z,98587.66
2023-01-23T09:55:01.563Z,98584.59
2023-01-23T09:57:37.197Z,98582.97
2023-01-23T10:00:13.205Z,98581.63
2023-01-23T10:02:43.859Z,98574.03
2023-01-23T10:05:19.555Z,98578.56
2023-01-23T10:07:52.672Z,98579.16
2023-01-23T10:10:34.569Z,98574.38
2023-01-23T10:13:31.364Z,98573.00
2023-01-23T10:16:17.366Z,98566.41
2023-01-23T10:19:09.583Z,98570.47
2023-01-23T10:21:47.961Z,98571.19
2023-01-23T10:24:41.025Z,98572.75
2023-01-23T10:27:23.109Z,98568.31
2023-01-23T10:29:58.558Z,98562.81
2023-01-23T10:32:29.982Z,98551.28
2023-01-23T10:35:12.596Z,98553.50
2023-01-23T10:37:51.467Z,98553.25
2023-01-23T10:40:41.681Z,98551.78
2023-01-23T10:43:27.076Z,98545.84
2023-01-23T10:45:53.995Z,98544.16
2023-01-23T10:48:33.079Z,98561.34
2023-01-23T10:51:00.961Z,98557.53
2023-01-23T10:53:28.006Z,98554.53
2023-01-23T10:55:59.415Z,98553.16
2023-01-23T10:58:43.566Z,98550.28
2023-01-23T11:01:32.994Z,98545.31
2023-01-23T11:04:21.929Z,98544.69
2023-01-23T11:07:05.932Z,98551.16
2023-01-23T11:09:33.577Z,98542.53
2023-01-23T11:12:05.228Z,98545.19
2023-01-23T11:14:32.911Z,98554.22
2023-01-23T11:17:22.502Z,98563.31
2023-01-23T11:19:54.329Z,98551.66
2023-01-23T11:22:27.678Z,98553.38
2023-01-23T11:24:54.996Z,98552.22
2023-01-23T11:27:26.732Z,98558.84
2023-01-23T11:29:59.762Z,98559.69
2023-01-23T11:32:29.233Z,98558.31
2023-01-23T11:35:11.997Z,98562.69
2023-01-23T11:37:40.605Z,98562.13
2023-01-23T11:40:17.194Z,98557.47
2023-01-23T11:42:44.871Z,98554.50
2023-01-23T11:45:45.189Z,98564.06
2023-01-23T11:48:41.506Z,98550.81
2023-01-23T11:51:42.954Z,98549.38
2023-01-23T11:54:42.521Z,98551.91
2023-01-23T11:57:33.939Z,98553.75
2023-01-23T12:00:07.518Z,98559.81
2023-01-23T12:02:58.819Z,98562.50
2023-01-23T12:05:31.795Z,98562.84
2023-01-23T12:08:11.658Z,98559.84
2023-01-23T12:11:16.413Z,98563.66
2023-01-23T12:14:27.696Z,98561.66
2023-01-23T12:17:08.904Z,98566.59
2023-01-23T12:19:36.831Z,98570.63
2023-01-23T12:22:03.668Z,98572.03
2023-01-23T12:25:06.508Z,98577.66
2023-01-23T12:27:46.360Z,98582.69
2023-01-23T12:30:35.966Z,98583.38
2023-01-23T12:33:18.394Z,98584.34
2023-01-23T12:35:59.464Z,98584.94
2023-01-23T12:38:47.514Z,98591.66
2023-01-23T12:41:26.332Z,98602.03
2023-01-23T12:44:32.024Z,98595.91
2023-01-23T12:47:05.958Z,98602.06
2023-01-23T12:49:44.212Z,98614.22
2023-01-23T12:52:36.005Z,98616.56
2023-01-23T12:55:19.344Z,98611.44
2023-01-23T12:58:00.277Z,98608.84
2023-01-23T13:01:13.123Z,98614.84
2023-01-23T13:03:59.328Z,98624.53
2023-01-23T13:06:43.252Z,98617.56
2023-01-23T13:09:34.276Z,98622.69
2023-01-23T13:12:22.389Z,98616.44
2023-01-23T13:15:13.325Z,98619.00
2023-01-23T13:17:59.977Z,98620.59
2023-01-23T13:20:54.269Z,98634.78
2023-01-23T13:23:24.488Z,98635.69
2023-01-23T13:26:21.154Z,98637.00
2023-01-23T13:29:31.407Z,98635.78
2023-01-23T13:32:28.254Z,98638.38
2023-01-23T13:34:55.813Z,98633.22
2023-01-23T13:37:29.106Z,98636.91
2023-01-23T13:40:15.869Z,98637.63
2023-01-23T13:42:43.918Z,98646.22
2023-01-23T13:45:16.903Z,98645.34
2023-01-23T14:31:07.151Z,98680.03
2023-01-23T14:33:49.648Z,98680.88
2023-01-23T14:36:19.889Z,98677.19
2023-01-23T14:38:50.164Z,98673.25
2023-01-23T14:41:20.918Z,98680.72
2023-01-23T14:43:57.743Z,98669.19
2023-01-23T14:46:36.001Z,98681.09
2023-01-23T14:49:11.201Z,98678.34
2023-01-23T14:51:39.716Z,98681.88
2023-01-23T14:54:20.402Z,98684.31
2023-01-23T14:56:51.627Z,98687.63
2023-01-23T14:59:32.829Z,98686.50
2023-01-23T15:02:13.172Z,98692.75
2023-01-23T15:05:08.054Z,98693.78
2023-01-23T15:07:43.899Z,98687.41
2023-01-23T15:10:20.144Z,98692.63
2023-01-23T15:13:21.548Z,98688.97
2023-01-23T15:16:04.069Z,98691.00
2023-01-23T15:18:35.591Z,98692.28
2023-01-23T15:21:08.348Z,98688.63
2023-01-23T15:23:38.326Z,98698.16
2023-01-23T15:26:18.745Z,98692.13
2023-01-23T15:28:55.401Z,98693.16
2023-01-23T15:31:42.359Z,98691.97
2023-01-23T15:34:15.729Z,98692.91
2023-01-23T15:37:06.693Z,98702.16
2023-01-23T15:39:49.521Z,98703.34
2023-01-23T15:42:16.867Z,98708.75
2023-01-23T15:44:44.344Z,98716.00
2023-01-23T15:47:11.464Z,98716.94
2023-01-23T15:49:40.469Z,98717.94
2023-01-23T15:52:25.739Z,98721.31
2023-01-23T15:55:01.693Z,98719.66
2023-01-23T15:57:29.136Z,98714.88
2023-01-23T15:59:55.962Z,98720.88
2023-01-23T16:02:31.298Z,98722.25
2023-01-23T16:05:02.350Z,98726.47
2023-01-23T16:07:35.757Z,98732.47
2023-01-23T16:10:17.158Z,98735.53
2023-01-23T16:12:46.936Z,98737.84
2023-01-23T16:15:19.802Z,98743.56
2023-01-23T16:17:47.536Z,98734.75
2023-01-23T16:20:28.986Z,98744.06
2023-01-23T16:23:08.503Z,98757.53
2023-01-23T16:25:44.850Z,98749.56
2023-01-23T16:28:24.464Z,98758.47
2023-01-23T16:30:52.157Z,98757.13
2023-01-23T16:33:20.303Z,98778.75
2023-01-23T16:35:49.357Z,98764.63
2023-01-23T16:38:24.442Z,98777.34
2023-01-23T16:40:54.193Z,98777.56
2023-01-23T16:43:21.809Z,98781.47
2023-01-23T16:45:49.119Z,98782.81
2023-01-23T16:48:26.798Z,98793.56
2023-01-23T16:51:05.291Z,98793.56
2023-01-23T16:53:40.911Z,98795.28
2023-01-23T16:56:13.098Z,98805.19
2023-01-23T16:58:41.257Z,98793.56
2023-01-23T17:01:15.931Z,98804.34
2023-01-23T17:03:44.396Z,98808.94
2023-01-23T17:06:16.422Z,98802.81
2023-01-23T17:08:43.377Z,98803.81
2023-01-23T17:11:17.618Z,98812.84
2023-01-23T17:13:47.735Z,98805.13
2023-01-23T17:16:26.394Z,98822.75
2023-01-23T17:18:59.528Z,98814.03
2023-01-23T17:21:33.877Z,98817.69
2023-01-23T17:24:01.379Z,98827.72
2023-01-23T17:26:28.293Z,98823.53
2023-01-23T17:28:55.860Z,98836.25
2023-01-23T17:31:28.636Z,98834.50
2023-01-23T17:33:56.292Z,98837.53
2023-01-23T17:36:26.446Z,98835.19
2023-01-23T17:38:59.679Z,98839.81
2023-01-23T17:41:26.541Z,98835.41
2023-01-23T17:43:54.271Z,98845.97
2023-01-23T17:46:27.051Z,98837.25
2023-01-23T17:48:56.377Z,98840.16
2023-01-23T17:51:25.373Z,98834.97
2023-01-23T17:53:53.469Z,98840.56
2023-01-23T17:56:22.944Z,98828.66
2023-01-23T17:58:49.811Z,98831.13
2023-01-23T18:01:23.662Z,98841.03
2023-01-23T18:03:52.082Z,98835.84
2023-01-23T18:06:21.523Z,98840.59
2023-01-23T18:08:48.727Z,98841.03
2023-01-23T18:11:23.885Z,98840.25
2023-01-23T18:14:08.210Z,98841.34
2023-01-23T18:16:45.674Z,98845.53
2023-01-23T18:19:19.398Z,98854.78
2023-01-23T18:21:57.901Z,98854.13
2023-01-23T18:24:30.487Z,98850.69
2023-01-23T18:27:12.080Z,98843.81
2023-01-23T18:29:58.286Z,98860.22
2023-01-23T18:32:40.639Z,98851.97
2023-01-23T18:35:20.095Z,98850.22
2023-01-23T18:38:03.962Z,98863.88
2023-01-23T18:40:53.546Z,98857.66
2023-01-23T18:43:43.812Z,98862.28
2023-01-23T18:46:16.235Z,98863.59
2023-01-23T18:48:45.182Z,98863.28
2023-01-23T18:51:21.027Z,98870.16
2023-01-23T18:54:14.282Z,98864.88
2023-01-23T18:56:52.916Z,98866.25
2023-01-23T18:59:25.373Z,98870.13
2023-01-23T19:02:01.000Z,98868.75
2023-01-23T19:04:38.684Z,98874.22
2023-01-23T19:07:16.111Z,98870.78
2023-01-23T19:09:46.596Z,98866.59
2023-01-23T19:12:25.348Z,98867.66
2023-01-23T19:15:08.430Z,98878.31
2023-01-23T19:17:44.225Z,98880.16
2023-01-23T19:20:26.415Z,98874.97
2023-01-23T19:23:17.809Z,98870.53
2023-01-23T19:25:48.273Z,98877.75
2023-01-23T19:28:16.464Z,98879.25
2023-01-23T19:30:43.749Z,98891.72
2023-01-23T19:33:19.185Z,98881.38
2023-01-23T19:35:47.439Z,98887.53
2023-01-23T19:38:17.617Z,98884.84
2023-01-23T19:40:45.848Z,98903.31
2023-01-23T19:43:17.008Z,98906.88
2023-01-23T19:45:45.267Z,98902.47
2023-01-23T19:48:12.657Z,98907.50
2023-01-23T19:50:41.004Z,98906.00
2023-01-23T19:53:08.342Z,98904.19
2023-01-23T19:55:38.429Z,98912.03
2023-01-23T19:58:05.655Z,98903.13
2023-01-23T20:00:38.772Z,98898.69
2023-01-23T20:03:05.909Z,98907.09
2023-01-23T20:05:33.136Z,98899.34
2023-01-23T20:08:01.154Z,98916.00
2023-01-23T20:10:28.730Z,98906.75
2023-01-23T20:12:56.788Z,98912.13
2023-01-23T20:15:25.754Z,98919.06
2023-01-23T20:17:54.688Z,98918.81
2023-01-23T20:20:22.234Z,98908.31
2023-01-23T20:22:51.572Z,98911.84
2023-01-23T20:25:19.132Z,98911.94
2023-01-23T20:27:46.181Z,98913.69
2023-01-23T20:30:16.220Z,98912.97
2023-01-23T20:32:44.411Z,98921.84
2023-01-23T20:35:11.954Z,98918.06
2023-01-23T20:37:38.927Z,98926.50
2023-01-23T20:40:09.276Z,98922.50
2023-01-23T20:42:36.141Z,98923.84
2023-01-23T20:45:03.735Z,98932.88
2023-01-23T20:47:30.661Z,98936.06
2023-01-23T20:49:57.501Z,98935.25
2023-01-23T20:52:43.482Z,98931.16
2023-01-23T20:55:10.439Z,98930.09
2023-01-23T20:57:56.025Z,98930.69
2023-01-23T21:00:23.043Z,98925.13
2023-01-23T21:02:50.622Z,98935.97
2023-01-23T21:05:17.964Z,98923.50
2023-01-23T21:07:44.837Z,98925.06
2023-01-23T21:10:12.486Z,98915.75
2023-01-23T21:12:39.306Z,98938.47
2023-01-23T21:15:06.928Z,98938.84
2023-01-23T21:17:34.220Z,98944.03
2023-01-23T21:20:01.361Z,98935.47
2023-01-23T21:22:28.221Z,98936.91
2023-01-23T21:24:57.749Z,98934.34
2023-01-23T21:27:26.058Z,98931.56
2023-01-23T21:29:53.380Z,98934.81
2023-01-23T21:32:21.530Z,98942.78
2023-01-23T21:34:48.702Z,98952.06
2023-01-23T21:37:15.872Z,98951.47
2023-01-23T21:39:43.388Z,98961.28
2023-01-23T21:42:10.189Z,98945.34
2023-01-23T21:44:37.338Z,98950.53
2023-01-23T21:47:04.506Z,98949.97
2023-01-23T21:49:31.667Z,98947.19
2023-01-23T21:51:58.474Z,98948.03
2023-01-23T21:54:27.516Z,98941.16
2023-01-23T21:56:54.400Z,98938.94
2023-01-23T21:59:21.229Z,98937.88
2023-01-23T22:01:48.587Z,98942.50
2023-01-23T22:04:22.536Z,98940.00
2023-01-23T22:06:55.497Z,98937.13
2023-01-23T22:09:24.964Z,98941.91
2023-01-23T22:11:52.885Z,98946.72
2023-01-23T22:14:20.408Z,98953.59
2023-01-23T22:16:49.525Z,98941.16
2023-01-23T22:19:19.670Z,98954.34
2023-01-23T22:21:47.352Z,98946.13
2023-01-23T22:24:15.344Z,98956.00
2023-01-23T22:26:42.934Z,98953.41
2023-01-23T22:29:12.446Z,98947.28
2023-01-23T22:31:39.365Z,98949.88
2023-01-23T22:34:06.373Z,98941.34
2023-01-23T22:36:33.191Z,98949.00
2023-01-23T22:39:00.184Z,98947.09
2023-01-23T22:41:28.699Z,98929.19
2023-01-23T22:43:56.935Z,98938.66
2023-01-23T22:46:24.110Z,98929.47
2023-01-23T22:48:51.833Z,98929.63
2023-01-23T22:51:24.761Z,98931.47
2023-01-23T22:53:56.307Z,98932.78
2023-01-23T22:56:23.943Z,98947.47
2023-01-23T22:58:52.472Z,98946.13
2023-01-23T23:01:20.329Z,98953.41
2023-01-23T23:03:47.467Z,98942.38
2023-01-23T23:06:16.765Z,98939.16
2023-01-23T23:08:48.158Z,98939.03
2023-01-23T23:11:21.795Z,98942.28
2023-01-23T23:13:51.579Z,98936.91
2023-01-23T23:16:27.449Z,98939.41
2023-01-23T23:18:56.468Z,98923.50
2023-01-23T23:21:28.776Z,98938.94
2023-01-23T23:24:00.510Z,98936.41
2023-01-23T23:26:30.143Z,98929.44
2023-01-23T23:28:57.613Z,98932.50
2023-01-23T23:31:25.450Z,98938.16
2023-01-23T23:33:53.233Z,98940.06
2023-01-23T23:36:20.595Z,98932.69
2023-01-23T23:38:47.784Z,98936.31
2023-01-23T23:41:17.893Z,98943.78
2023-01-23T23:43:45.037Z,98943.59
2023-01-23T23:46:13.368Z,98937.19
2023-01-23T23:48:41.198Z,98939.41
2023-01-23T23:51:11.288Z,98947.16
2023-01-23T23:53:38.224Z,98950.59
2023-01-23T23:56:06.612Z,98948.88
2023-01-23T23:58:36.786Z,98946.75
